createdAt,value
2023-04-13T00:01:00.167Z,8.35
2023-04-13T00:02:01.358Z,8.27
2023-04-13T00:03:01.953Z,8.23
2023-04-13T00:04:03.963Z,8.17
2023-04-13T00:05:03.032Z,8.06
2023-04-13T00:06:02.857Z,8.13
2023-04-13T00:07:03.825Z,8.18
2023-04-13T00:08:04.156Z,8.16
2023-04-13T00:09:04.266Z,8.16
2023-04-13T00:10:04.744Z,8.06
2023-04-13T00:11:05.251Z,7.95
2023-04-13T00:12:05.939Z,7.88
2023-04-13T00:13:06.660Z,7.87
2023-04-13T00:14:07.595Z,7.9
2023-04-13T00:15:08.129Z,7.85
2023-04-13T00:16:08.676Z,7.87
2023-04-13T00:17:09.612Z,7.81
2023-04-13T00:18:09.666Z,7.67
2023-04-13T00:19:10.289Z,7.7
2023-04-13T00:20:10.915Z,7.62
2023-04-13T00:21:11.633Z,7.64
2023-04-13T00:22:12.436Z,7.64
2023-04-13T00:23:12.980Z,7.53
2023-04-13T00:24:13.939Z,7.48
2023-04-13T00:25:14.786Z,7.47
2023-04-13T00:26:15.896Z,7.47
2023-04-13T00:27:16.204Z,7.41
2023-04-13T00:28:17.157Z,7.36
2023-04-13T00:29:17.695Z,7.37
2023-04-13T00:30:18.737Z,7.37
2023-04-13T00:31:19.725Z,7.37
2023-04-13T00:32:19.962Z,7.36
2023-04-13T00:33:20.890Z,7.32
2023-04-13T00:34:21.459Z,7.21
2023-04-13T00:35:22.211Z,7.31
2023-04-13T00:36:23.314Z,7.23
2023-04-13T00:37:23.814Z,7.15
2023-04-13T00:38:25.294Z,7.08
2023-04-13T00:39:26.146Z,7.01
2023-04-13T00:40:27.175Z,6.83
2023-04-13T00:41:27.120Z,6.71
2023-04-13T00:42:27.633Z,6.67
2023-04-13T00:43:28.102Z,6.6
2023-04-13T00:44:28.398Z,6.6
2023-04-13T00:45:28.534Z,6.59
2023-04-13T00:46:29.254Z,6.5
2023-04-13T00:47:30.337Z,6.47
2023-04-13T00:48:31.155Z,6.43
2023-04-13T00:49:31.853Z,6.53
2023-04-13T00:50:32.471Z,6.43
2023-04-13T00:51:32.782Z,6.49
2023-04-13T00:52:33.282Z,6.53
2023-04-13T00:53:33.909Z,6.44
2023-04-13T00:54:34.391Z,6.49
2023-04-13T00:55:34.336Z,6.52
2023-04-13T00:56:34.727Z,6.44
2023-04-13T00:57:35.483Z,6.52
2023-04-13T00:58:36.293Z,6.54
2023-04-13T00:59:37.224Z,6.57
2023-04-13T01:00:37.840Z,6.6
2023-04-13T01:01:38.660Z,6.57
2023-04-13T01:02:39.576Z,6.7
2023-04-13T01:03:40.625Z,6.71
2023-04-13T01:04:40.457Z,6.6
2023-04-13T01:05:40.497Z,6.6
2023-04-13T01:06:41.381Z,6.74
2023-04-13T01:07:41.720Z,6.64
2023-04-13T01:08:42.648Z,6.7
2023-04-13T01:09:43.167Z,6.72
2023-04-13T01:10:43.906Z,6.6
2023-04-13T01:11:44.439Z,6.59
2023-04-13T01:12:45.152Z,6.6
2023-04-13T01:13:45.657Z,6.72
2023-04-13T01:14:46.645Z,6.6
2023-04-13T01:15:47.176Z,6.7
2023-04-13T01:16:47.580Z,6.68
2023-04-13T01:17:49.175Z,6.59
2023-04-13T01:18:49.667Z,6.65
2023-04-13T01:19:50.197Z,6.65
2023-04-13T01:20:51.022Z,6.74
2023-04-13T01:21:51.130Z,6.7
2023-04-13T01:22:51.971Z,6.7
2023-04-13T01:23:52.687Z,6.68
2023-04-13T01:24:53.676Z,6.59
2023-04-13T01:25:54.238Z,6.71
2023-04-13T01:26:55.149Z,6.59
2023-04-13T01:27:55.700Z,6.74
2023-04-13T01:28:56.233Z,6.59
2023-04-13T01:29:56.952Z,6.56
2023-04-13T01:30:57.271Z,6.65
2023-04-13T01:31:58.368Z,6.67
2023-04-13T01:32:59.362Z,6.74
2023-04-13T01:33:59.850Z,6.68
2023-04-13T01:34:59.472Z,6.8
2023-04-13T01:36:00.137Z,6.82
2023-04-13T01:37:00.099Z,6.74
2023-04-13T01:38:00.590Z,6.85
2023-04-13T01:39:01.110Z,6.89
2023-04-13T01:40:01.642Z,6.82
2023-04-13T01:41:02.326Z,6.8
2023-04-13T01:42:03.049Z,6.85
2023-04-13T01:43:03.562Z,6.89
2023-04-13T01:44:04.335Z,6.97
2023-04-13T01:45:04.881Z,6.97
2023-04-13T01:46:05.732Z,6.96
2023-04-13T01:47:06.855Z,7.05
2023-04-13T01:48:07.529Z,6.97
2023-04-13T01:49:08.017Z,7
2023-04-13T01:50:08.918Z,7.04
2023-04-13T01:51:09.536Z,7.05
2023-04-13T01:52:09.888Z,7.01
2023-04-13T01:53:10.400Z,7.11
2023-04-13T01:54:10.826Z,7.08
2023-04-13T01:55:11.408Z,7.11
2023-04-13T01:56:12.047Z,7.1
2023-04-13T01:57:12.755Z,7.19
2023-04-13T01:58:13.496Z,7.21
2023-04-13T01:59:14.013Z,7.18
2023-04-13T02:00:14.741Z,7.14
2023-04-13T02:01:15.062Z,7.22
2023-04-13T02:02:15.432Z,7.22
2023-04-13T02:03:15.999Z,7.19
2023-04-13T02:04:16.190Z,7.22
2023-04-13T02:05:15.984Z,7.19
2023-04-13T02:06:16.515Z,7.18
2023-04-13T02:07:17.218Z,7.15
2023-04-13T02:08:17.149Z,7.22
2023-04-13T02:09:17.655Z,7.14
2023-04-13T02:10:18.934Z,7.14
2023-04-13T02:11:19.350Z,7.22
2023-04-13T02:12:20.246Z,7.15
2023-04-13T02:13:20.360Z,7.26
2023-04-13T02:14:21.047Z,7.22
2023-04-13T02:15:21.779Z,7.25
2023-04-13T02:16:22.733Z,7.21
2023-04-13T02:17:23.800Z,7.23
2023-04-13T02:18:24.609Z,7.26
2023-04-13T02:19:24.694Z,7.25
2023-04-13T02:20:25.830Z,7.18
2023-04-13T02:21:26.631Z,7.22
2023-04-13T02:22:27.121Z,7.21
2023-04-13T02:23:27.798Z,7.22
2023-04-13T02:24:28.732Z,7.26
2023-04-13T02:25:29.408Z,7.19
2023-04-13T02:26:30.175Z,7.21
2023-04-13T02:27:31.055Z,7.22
2023-04-13T02:28:31.576Z,7.26
2023-04-13T02:29:32.333Z,7.19
2023-04-13T02:30:33.452Z,7.25
2023-04-13T02:31:34.137Z,7.26
2023-04-13T02:32:34.808Z,7.18
2023-04-13T02:33:35.435Z,7.23
2023-04-13T02:34:35.938Z,7.23
2023-04-13T02:35:36.657Z,7.23
2023-04-13T02:36:37.189Z,7.36
2023-04-13T02:37:38.124Z,7.37
2023-04-13T02:38:38.887Z,7.39
2023-04-13T02:39:39.385Z,7.43
2023-04-13T02:40:40.095Z,7.31
2023-04-13T02:41:41.190Z,7.29
2023-04-13T02:42:41.485Z,7.23
2023-04-13T02:43:42.392Z,7.26
2023-04-13T02:44:42.071Z,7.19
2023-04-13T02:45:42.923Z,7.21
2023-04-13T02:46:42.659Z,7.14
2023-04-13T02:47:43.118Z,7.15
2023-04-13T02:48:44.206Z,7.18
2023-04-13T02:49:44.732Z,7.18
2023-04-13T02:50:45.435Z,7.14
2023-04-13T02:51:45.924Z,7.03
2023-04-13T02:52:46.425Z,7.01
2023-04-13T02:53:47.345Z,6.87
2023-04-13T02:54:48.378Z,6.95
2023-04-13T02:55:49.007Z,6.83
2023-04-13T02:56:49.180Z,6.87
2023-04-13T02:57:49.445Z,6.82
2023-04-13T02:58:50.631Z,6.83
2023-04-13T02:59:51.338Z,6.74
2023-04-13T03:00:52.571Z,6.82
2023-04-13T03:01:53.034Z,6.8
2023-04-13T03:02:53.496Z,6.85
2023-04-13T03:03:54.040Z,6.72
2023-04-13T03:04:54.188Z,6.68
2023-04-13T03:05:55.040Z,6.62
2023-04-13T03:06:55.568Z,6.65
2023-04-13T03:07:56.491Z,6.43
2023-04-13T03:08:57.202Z,6.47
2023-04-13T03:09:57.905Z,6.46
2023-04-13T03:10:58.412Z,6.35
2023-04-13T03:11:59.401Z,6.39
2023-04-13T03:13:00.386Z,6.39
2023-04-13T03:14:01.891Z,6.39
2023-04-13T03:15:01.336Z,6.39
2023-04-13T03:16:01.723Z,6.39
2023-04-13T03:17:02.241Z,6.43
2023-04-13T03:18:03.313Z,6.46
2023-04-13T03:19:04.271Z,6.47
2023-04-13T03:20:04.746Z,6.39
2023-04-13T03:21:04.833Z,6.39
2023-04-13T03:22:05.288Z,6.36
2023-04-13T03:23:05.978Z,6.36
2023-04-13T03:24:07.183Z,6.44
2023-04-13T03:25:08.081Z,6.44
2023-04-13T03:26:08.984Z,6.46
2023-04-13T03:27:09.981Z,6.38
2023-04-13T03:28:10.447Z,6.43
2023-04-13T03:29:11.487Z,6.47
2023-04-13T03:30:12.343Z,6.43
2023-04-13T03:31:13.546Z,6.39
2023-04-13T03:32:14.065Z,6.39
2023-04-13T03:33:14.800Z,6.54
2023-04-13T03:34:15.522Z,6.44
2023-04-13T03:35:15.865Z,6.47
2023-04-13T03:36:16.382Z,6.52
2023-04-13T03:37:17.563Z,6.54
2023-04-13T03:38:17.452Z,6.46
2023-04-13T03:39:18.004Z,6.54
2023-04-13T03:40:18.584Z,6.47
2023-04-13T03:41:19.290Z,6.56
2023-04-13T03:42:20.321Z,6.46
2023-04-13T03:43:21.011Z,6.62
2023-04-13T03:44:21.502Z,6.62
2023-04-13T03:45:22.032Z,6.57
2023-04-13T03:46:22.707Z,6.62
2023-04-13T03:47:23.102Z,6.62
2023-04-13T03:48:23.710Z,6.56
2023-04-13T03:49:24.218Z,6.59
2023-04-13T03:50:24.925Z,6.59
2023-04-13T03:51:25.393Z,6.54
2023-04-13T03:52:25.646Z,6.43
2023-04-13T03:53:26.800Z,6.47
2023-04-13T03:54:27.715Z,6.44
2023-04-13T03:55:27.797Z,6.53
2023-04-13T03:56:28.162Z,6.47
2023-04-13T03:57:29.127Z,6.5
2023-04-13T03:58:29.478Z,6.35
2023-04-13T03:59:29.775Z,6.41
2023-04-13T04:00:30.680Z,6.31
2023-04-13T04:01:31.442Z,6.17
2023-04-13T04:02:32.659Z,6.28
2023-04-13T04:03:32.456Z,6.2
2023-04-13T04:04:32.864Z,6.15
2023-04-13T04:05:33.032Z,6.19
2023-04-13T04:06:34.151Z,6.17
2023-04-13T04:07:34.497Z,5.99
2023-04-13T04:08:35.195Z,6.17
2023-04-13T04:09:35.913Z,6.09
2023-04-13T04:10:36.466Z,6.13
2023-04-13T04:11:36.949Z,6.16
2023-04-13T04:12:37.619Z,6.19
2023-04-13T04:13:37.914Z,6.19
2023-04-13T04:14:38.389Z,6.26
2023-04-13T04:15:39.117Z,6.22
2023-04-13T04:16:39.690Z,6.22
2023-04-13T04:17:41.092Z,6.26
2023-04-13T04:18:41.280Z,6.28
2023-04-13T04:19:42.023Z,6.29
2023-04-13T04:20:42.524Z,6.34
2023-04-13T04:21:43.102Z,6.34
2023-04-13T04:22:43.919Z,6.31
2023-04-13T04:23:44.835Z,6.38
2023-04-13T04:24:45.550Z,6.34
2023-04-13T04:25:46.236Z,6.38
2023-04-13T04:26:46.707Z,6.41
2023-04-13T04:27:47.470Z,6.38
2023-04-13T04:28:48.147Z,6.31
2023-04-13T04:29:49.048Z,6.2
2023-04-13T04:30:49.564Z,6.15
2023-04-13T04:31:50.237Z,6.13
2023-04-13T04:32:50.769Z,6.09
2023-04-13T04:33:51.605Z,6.06
2023-04-13T04:34:52.784Z,6.07
2023-04-13T04:35:53.542Z,6.01
2023-04-13T04:36:53.932Z,6.06
2023-04-13T04:37:54.312Z,6.05
2023-04-13T04:38:54.803Z,6.06
2023-04-13T04:39:55.291Z,6.06
2023-04-13T04:40:56.401Z,6.07
2023-04-13T04:41:57.043Z,6.05
2023-04-13T04:42:57.751Z,6.01
2023-04-13T04:43:58.856Z,6.07
2023-04-13T04:44:58.895Z,5.92
2023-04-13T04:45:59.334Z,6.01
2023-04-13T04:47:00.373Z,5.92
2023-04-13T04:48:01.201Z,5.92
2023-04-13T04:49:01.963Z,5.9
2023-04-13T04:50:02.489Z,5.9
2023-04-13T04:51:02.250Z,5.9
2023-04-13T04:52:02.569Z,5.84
2023-04-13T04:53:02.967Z,5.88
2023-04-13T04:54:04.435Z,5.83
2023-04-13T04:55:04.153Z,5.83
2023-04-13T04:56:04.863Z,5.9
2023-04-13T04:57:05.532Z,5.92
2023-04-13T04:58:06.329Z,5.88
2023-04-13T04:59:07.141Z,5.9
2023-04-13T05:00:08.134Z,5.9
2023-04-13T05:01:08.424Z,5.9
2023-04-13T05:02:08.471Z,5.91
2023-04-13T05:03:09.014Z,5.94
2023-04-13T05:04:08.796Z,5.99
2023-04-13T05:05:09.607Z,5.95
2023-04-13T05:06:10.102Z,5.94
2023-04-13T05:07:10.826Z,5.99
2023-04-13T05:08:11.820Z,6.01
2023-04-13T05:09:11.606Z,6.05
2023-04-13T05:10:12.158Z,6.1
2023-04-13T05:11:12.691Z,6.02
2023-04-13T05:12:13.180Z,6.16
2023-04-13T05:13:13.889Z,6.13
2023-04-13T05:14:14.608Z,6.05
2023-04-13T05:15:14.972Z,6.17
2023-04-13T05:16:15.755Z,6.15
2023-04-13T05:17:16.714Z,6.15
2023-04-13T05:18:17.020Z,6.28
2023-04-13T05:19:17.519Z,6.15
2023-04-13T05:20:19.033Z,6.17
2023-04-13T05:21:19.731Z,6.22
2023-04-13T05:22:20.226Z,6.25
2023-04-13T05:23:20.690Z,6.26
2023-04-13T05:24:21.401Z,6.31
2023-04-13T05:25:22.287Z,6.34
2023-04-13T05:26:22.782Z,6.36
2023-04-13T05:27:23.674Z,6.35
2023-04-13T05:28:24.445Z,6.36
2023-04-13T05:29:25.130Z,6.35
2023-04-13T05:30:25.646Z,6.32
2023-04-13T05:31:26.229Z,6.34
2023-04-13T05:32:27.047Z,6.35
2023-04-13T05:33:27.492Z,6.35
2023-04-13T05:34:27.988Z,6.34
2023-04-13T05:35:28.982Z,6.32
2023-04-13T05:36:29.518Z,6.2
2023-04-13T05:37:30.477Z,6.22
2023-04-13T05:38:31.060Z,6.13
2023-04-13T05:39:31.548Z,6.17
2023-04-13T05:40:32.054Z,6.2
2023-04-13T05:41:32.579Z,6.17
2023-04-13T05:42:33.714Z,6.2
2023-04-13T05:43:33.830Z,6.22
2023-04-13T05:44:34.169Z,6.2
2023-04-13T05:45:34.761Z,6.22
2023-04-13T05:46:34.795Z,6.38
2023-04-13T05:47:35.587Z,6.31
2023-04-13T05:48:36.983Z,6.39
2023-04-13T05:50:36.374Z,6.41
2023-04-13T05:51:36.110Z,6.35
2023-04-13T05:52:36.794Z,6.32
2023-04-13T05:53:37.242Z,6.32
2023-04-13T05:54:38.207Z,6.35
2023-04-13T05:55:38.904Z,6.44
2023-04-13T05:56:39.774Z,6.36
2023-04-13T05:57:40.574Z,6.49
2023-04-13T05:58:41.118Z,6.46
2023-04-13T05:59:41.821Z,6.52
2023-04-13T06:00:42.524Z,6.54
2023-04-13T06:01:43.128Z,6.6
2023-04-13T06:02:44.584Z,6.62
2023-04-13T06:03:45.989Z,6.68
2023-04-13T06:04:46.199Z,6.67
2023-04-13T06:05:46.336Z,6.72
2023-04-13T06:06:47.024Z,6.74
2023-04-13T06:07:47.744Z,6.71
2023-04-13T06:08:48.259Z,6.77
2023-04-13T06:09:49.513Z,6.89
2023-04-13T06:10:50.257Z,6.89
2023-04-13T06:11:50.779Z,6.83
2023-04-13T06:12:51.984Z,6.93
2023-04-13T06:13:52.697Z,6.89
2023-04-13T06:14:53.297Z,6.89
2023-04-13T06:15:54.604Z,7.03
2023-04-13T06:16:55.259Z,6.97
2023-04-13T06:17:56.456Z,7.03
2023-04-13T06:18:56.565Z,6.96
2023-04-13T06:19:56.427Z,7.01
2023-04-13T06:20:57.575Z,7.03
2023-04-13T06:21:58.310Z,7.11
2023-04-13T06:22:58.840Z,7.19
2023-04-13T06:23:59.431Z,7.15
2023-04-13T06:24:59.364Z,7.22
2023-04-13T06:25:59.904Z,7.23
2023-04-13T06:27:00.454Z,7.23
2023-04-13T06:28:01.359Z,7.36
2023-04-13T06:29:01.757Z,7.33
2023-04-13T06:30:02.468Z,7.33
2023-04-13T06:31:03.446Z,7.4
2023-04-13T06:32:04.113Z,7.47
2023-04-13T06:33:04.934Z,7.43
2023-04-13T06:34:05.730Z,7.58
2023-04-13T06:35:06.542Z,7.59
2023-04-13T06:36:07.348Z,7.59
2023-04-13T06:37:07.909Z,7.62
2023-04-13T06:38:08.396Z,7.67
2023-04-13T06:39:09.108Z,7.64
2023-04-13T06:40:08.809Z,7.7
2023-04-13T06:41:09.711Z,7.67
2023-04-13T06:42:10.472Z,7.72
2023-04-13T06:43:29.661Z,7.77
2023-04-13T06:45:17.926Z,7.74
2023-04-13T06:46:20.364Z,7.61
2023-04-13T06:47:19.133Z,7.59
2023-04-13T06:48:19.973Z,7.55
2023-04-13T06:49:20.690Z,7.48
2023-04-13T06:50:21.513Z,7.56
2023-04-13T06:51:22.373Z,7.62
2023-04-13T06:52:23.066Z,7.62
2023-04-13T06:53:23.565Z,7.7
2023-04-13T06:54:23.812Z,7.69
2023-04-13T06:55:24.333Z,7.67
2023-04-13T06:56:24.444Z,7.69
2023-04-13T06:57:25.153Z,7.66
2023-04-13T06:58:25.935Z,7.72
2023-04-13T06:59:26.642Z,7.64
2023-04-13T07:00:35.346Z,7.61
2023-04-13T07:02:29.309Z,7.74
2023-04-13T07:03:30.135Z,7.69
2023-04-13T07:04:34.493Z,7.78
2023-04-13T07:06:30.224Z,7.81
2023-04-13T07:07:31.342Z,7.85
2023-04-13T07:08:31.254Z,7.9
2023-04-13T07:09:32.023Z,7.83
2023-04-13T07:10:32.754Z,7.95
2023-04-13T07:11:33.589Z,8.06
2023-04-13T07:12:34.522Z,8.02
2023-04-13T07:13:34.456Z,8.05
2023-04-13T07:14:34.753Z,8.13
2023-04-13T07:15:35.598Z,8.03
2023-04-13T07:16:36.564Z,8.06
2023-04-13T07:17:37.295Z,8.08
2023-04-13T07:18:37.925Z,8.13
2023-04-13T07:19:38.814Z,8.08
2023-04-13T07:20:39.330Z,8.16
2023-04-13T07:21:40.246Z,8.2
2023-04-13T07:22:40.592Z,8.18
2023-04-13T07:23:41.502Z,8.26
2023-04-13T07:24:41.831Z,8.31
2023-04-13T07:25:42.767Z,8.41
2023-04-13T07:26:43.282Z,8.63
2023-04-13T07:27:43.779Z,8.71
2023-04-13T07:28:44.289Z,8.82
2023-04-13T07:29:45.192Z,8.92
2023-04-13T07:30:46.183Z,8.96
2023-04-13T07:31:46.745Z,9
2023-04-13T07:32:47.562Z,9
2023-04-13T07:33:48.617Z,9.05
2023-04-13T07:34:49.261Z,8.99
2023-04-13T07:35:49.985Z,8.89
2023-04-13T07:36:51.327Z,8.84
2023-04-13T07:37:53.636Z,8.79
2023-04-13T07:38:51.287Z,8.84
2023-04-13T07:39:52.337Z,8.78
2023-04-13T07:40:53.064Z,8.96
2023-04-13T07:41:53.975Z,9
2023-04-13T07:42:55.072Z,9.12
2023-04-13T07:43:55.604Z,9.11
2023-04-13T07:44:56.024Z,9.18
2023-04-13T07:45:57.247Z,9.34
2023-04-13T07:46:57.917Z,9.34
2023-04-13T07:47:58.661Z,9.4
2023-04-13T07:49:00.079Z,9.51
2023-04-13T07:49:59.594Z,9.52
2023-04-13T07:51:00.716Z,9.62
2023-04-13T07:52:01.712Z,9.64
2023-04-13T07:53:01.650Z,9.8
2023-04-13T07:54:02.363Z,9.81
2023-04-13T07:55:02.923Z,9.88
2023-04-13T07:56:03.712Z,9.88
2023-04-13T07:57:04.406Z,10.09
2023-04-13T07:58:04.929Z,10.1
2023-04-13T07:59:06.170Z,10.23
2023-04-13T08:00:05.849Z,10.28
2023-04-13T08:01:05.759Z,10.24
2023-04-13T08:02:06.519Z,10.31
2023-04-13T08:03:06.857Z,10.12
2023-04-13T08:04:07.467Z,10.15
2023-04-13T08:05:08.777Z,10.43
2023-04-13T08:06:08.263Z,10.53
2023-04-13T08:07:09.187Z,10.55
2023-04-13T08:08:09.762Z,10.75
2023-04-13T08:09:10.523Z,10.77
2023-04-13T08:10:11.706Z,10.9
2023-04-13T08:11:11.601Z,11.05
2023-04-13T08:12:12.318Z,11.18
2023-04-13T08:13:13.246Z,11.4
2023-04-13T08:14:14.150Z,11.48
2023-04-13T08:15:15.004Z,11.59
2023-04-13T08:16:15.900Z,11.55
2023-04-13T08:17:16.566Z,11.58
2023-04-13T08:18:16.911Z,11.76
2023-04-13T08:19:17.921Z,11.91
2023-04-13T08:20:18.638Z,12
2023-04-13T08:21:18.357Z,12.08
2023-04-13T08:22:19.497Z,12.05
2023-04-13T08:23:19.426Z,12.15
2023-04-13T08:24:19.919Z,12.11
2023-04-13T08:25:20.132Z,12.08
2023-04-13T08:26:21.137Z,12.12
2023-04-13T08:27:21.072Z,11.99
2023-04-13T08:28:21.820Z,11.93
2023-04-13T08:29:22.718Z,11.91
2023-04-13T08:30:23.864Z,11.8
2023-04-13T08:31:23.901Z,11.73
2023-04-13T08:32:24.771Z,11.67
2023-04-13T08:33:25.014Z,11.56
2023-04-13T08:34:25.763Z,11.56
2023-04-13T08:35:26.280Z,11.65
2023-04-13T08:36:26.794Z,11.63
2023-04-13T08:37:27.897Z,11.63
2023-04-13T08:38:28.857Z,11.53
2023-04-13T08:39:29.144Z,11.4
2023-04-13T08:40:29.893Z,11.34
2023-04-13T08:41:30.584Z,11.26
2023-04-13T08:42:32.850Z,11
2023-04-13T08:44:32.058Z,10.86
2023-04-13T08:45:32.868Z,10.82
2023-04-13T08:46:33.428Z,10.86
2023-04-13T08:47:33.456Z,10.75
2023-04-13T08:48:54.454Z,10.77
2023-04-13T08:50:35.230Z,10.77
2023-04-13T08:51:36.152Z,10.8
2023-04-13T08:52:36.946Z,10.79
2023-04-13T08:53:37.667Z,10.75
2023-04-13T08:54:38.761Z,10.58
2023-04-13T08:55:39.368Z,10.51
2023-04-13T08:56:51.492Z,10.43
2023-04-13T08:58:41.530Z,10.25
2023-04-13T08:59:42.281Z,10.2
2023-04-13T09:00:42.409Z,10.12
2023-04-13T09:01:43.788Z,10.12
2023-04-13T09:03:06.174Z,10.2
2023-04-13T09:04:45.659Z,10.21
2023-04-13T09:05:46.053Z,10.2
2023-04-13T09:06:47.146Z,10.12
2023-04-13T09:07:46.899Z,10.17
2023-04-13T09:08:47.187Z,10.1
2023-04-13T09:09:47.721Z,10.09
2023-04-13T09:10:48.665Z,10.13
2023-04-13T09:11:52.326Z,10.21
2023-04-13T09:12:50.181Z,10.25
2023-04-13T09:13:50.890Z,10.24
2023-04-13T09:14:51.039Z,10.25
2023-04-13T09:16:10.729Z,10.36
2023-04-13T09:17:12.983Z,10.42
2023-04-13T09:19:12.064Z,10.65
2023-04-13T09:20:12.989Z,10.75
2023-04-13T09:21:13.922Z,10.77
2023-04-13T09:22:14.878Z,10.87
2023-04-13T09:23:15.863Z,10.84
2023-04-13T09:24:15.824Z,10.82
2023-04-13T09:25:16.577Z,10.77
2023-04-13T09:26:17.290Z,10.79
2023-04-13T09:27:18.027Z,10.79
2023-04-13T09:28:18.370Z,10.72
2023-04-13T09:29:19.359Z,10.75
2023-04-13T09:30:20.144Z,10.79
2023-04-13T09:31:21.497Z,10.82
2023-04-13T09:32:21.742Z,10.84
2023-04-13T09:33:22.420Z,10.97
2023-04-13T09:34:23.743Z,10.94
2023-04-13T09:35:24.528Z,10.87
2023-04-13T09:36:24.915Z,10.86
2023-04-13T09:37:25.439Z,10.83
2023-04-13T09:38:26.202Z,10.94
2023-04-13T09:39:27.275Z,10.98
2023-04-13T09:40:26.988Z,10.94
2023-04-13T09:41:27.955Z,11.02
2023-04-13T09:42:28.484Z,11.07
2023-04-13T09:43:29.390Z,11.08
2023-04-13T09:44:29.533Z,11.07
2023-04-13T09:45:30.646Z,11.16
2023-04-13T09:46:31.592Z,11.05
2023-04-13T09:47:31.835Z,11.05
2023-04-13T09:48:31.908Z,11.1
2023-04-13T09:49:32.636Z,11.16
2023-04-13T09:50:33.187Z,11.15
2023-04-13T09:51:33.915Z,11.19
2023-04-13T09:52:34.759Z,11.25
2023-04-13T09:53:35.909Z,11.35
2023-04-13T09:54:36.878Z,11.3
2023-04-13T09:55:36.990Z,11.25
2023-04-13T09:56:37.644Z,11.15
2023-04-13T09:57:38.642Z,11.04
2023-04-13T09:58:39.421Z,11.12
2023-04-13T09:59:40.665Z,11.15
2023-04-13T10:00:41.720Z,11.15
2023-04-13T10:01:42.629Z,11.16
2023-04-13T10:02:43.295Z,11.18
2023-04-13T10:03:43.717Z,11.3
2023-04-13T10:04:43.962Z,11.35
2023-04-13T10:06:00.840Z,11.45
2023-04-13T10:07:49.632Z,11.51
2023-04-13T10:08:49.574Z,11.51
2023-04-13T10:09:49.876Z,11.56
2023-04-13T10:10:50.777Z,11.6
2023-04-13T10:11:50.737Z,11.63
2023-04-13T10:12:51.698Z,11.68
2023-04-13T10:13:52.041Z,11.59
2023-04-13T10:14:53.146Z,11.62
2023-04-13T10:15:53.560Z,11.59
2023-04-13T10:16:54.514Z,11.62
2023-04-13T10:17:55.521Z,11.68
2023-04-13T10:18:55.622Z,11.71
2023-04-13T10:19:55.953Z,11.83
2023-04-13T10:20:55.900Z,11.86
2023-04-13T10:21:57.493Z,11.85
2023-04-13T10:22:57.116Z,11.85
2023-04-13T10:23:57.791Z,11.83
2023-04-13T10:24:57.400Z,11.86
2023-04-13T10:25:57.542Z,11.86
2023-04-13T10:26:58.255Z,11.78
2023-04-13T10:27:59.252Z,11.8
2023-04-13T10:29:00.000Z,11.85
2023-04-13T10:29:59.623Z,11.81
2023-04-13T10:31:00.616Z,11.83
2023-04-13T10:32:02.132Z,11.76
2023-04-13T10:33:01.749Z,11.63
2023-04-13T10:34:02.155Z,11.6
2023-04-13T10:35:02.428Z,11.4
2023-04-13T10:36:02.985Z,11.23
2023-04-13T10:37:03.650Z,11.22
2023-04-13T10:38:03.990Z,11.15
2023-04-13T10:39:05.035Z,11.1
2023-04-13T10:40:05.035Z,11.1
2023-04-13T10:41:08.369Z,10.94
2023-04-13T10:42:06.332Z,10.98
2023-04-13T10:43:07.382Z,10.89
2023-04-13T10:44:08.408Z,10.9
2023-04-13T10:45:09.352Z,10.82
2023-04-13T10:46:10.220Z,10.87
2023-04-13T10:47:11.975Z,10.86
2023-04-13T10:48:11.334Z,10.79
2023-04-13T10:49:12.257Z,10.59
2023-04-13T10:50:13.396Z,10.57
2023-04-13T10:51:14.343Z,10.41
2023-04-13T10:52:14.312Z,10.38
2023-04-13T10:53:15.204Z,10.24
2023-04-13T10:54:15.952Z,10.21
2023-04-13T10:55:16.863Z,10.18
2023-04-13T10:56:16.780Z,10.03
2023-04-13T10:57:17.921Z,10.03
2023-04-13T10:58:18.862Z,9.92
2023-04-13T10:59:19.619Z,9.91
2023-04-13T11:00:20.876Z,9.84
2023-04-13T11:01:20.778Z,9.84
2023-04-13T11:02:21.908Z,9.87
2023-04-13T11:03:23.496Z,9.81
2023-04-13T11:04:24.831Z,9.85
2023-04-13T11:06:24.720Z,9.69
2023-04-13T11:07:25.568Z,9.72
2023-04-13T11:08:26.986Z,9.66
2023-04-13T11:09:26.922Z,9.55
2023-04-13T11:10:27.438Z,9.44
2023-04-13T11:11:27.934Z,9.33
2023-04-13T11:12:28.846Z,9.39
2023-04-13T11:13:30.152Z,9.37
2023-04-13T11:14:29.850Z,9.34
2023-04-13T11:15:30.013Z,9.4
2023-04-13T11:16:30.650Z,9.36
2023-04-13T11:17:31.434Z,9.36
2023-04-13T11:18:31.355Z,9.36
2023-04-13T11:19:31.883Z,9.4
2023-04-13T11:20:32.416Z,9.47
2023-04-13T11:21:33.335Z,9.45
2023-04-13T11:22:34.283Z,9.45
2023-04-13T11:23:34.909Z,9.51
2023-04-13T11:24:35.865Z,9.58
2023-04-13T11:25:36.189Z,9.67
2023-04-13T11:26:36.685Z,9.66
2023-04-13T11:27:37.188Z,9.64
2023-04-13T11:28:37.895Z,9.63
2023-04-13T11:29:38.852Z,9.59
2023-04-13T11:30:38.837Z,9.64
2023-04-13T11:31:39.897Z,9.66
2023-04-13T11:32:40.039Z,9.67
2023-04-13T11:33:41.035Z,9.62
2023-04-13T11:34:40.605Z,9.66
2023-04-13T11:35:41.300Z,9.59
2023-04-13T11:36:41.575Z,9.58
2023-04-13T11:37:42.088Z,9.59
2023-04-13T11:38:43.104Z,9.48
2023-04-13T11:39:44.208Z,9.48
2023-04-13T11:40:44.103Z,9.42
2023-04-13T11:41:44.294Z,9.42
2023-04-13T11:42:44.850Z,9.34
2023-04-13T11:43:44.759Z,9.34
2023-04-13T11:44:45.067Z,9.37
2023-04-13T11:45:45.530Z,9.34
2023-04-13T11:46:46.166Z,9.26
2023-04-13T11:47:46.780Z,9.26
2023-04-13T11:48:47.059Z,9.21
2023-04-13T11:49:47.189Z,9.22
2023-04-13T11:50:47.731Z,9.21
2023-04-13T11:51:48.233Z,9.16
2023-04-13T11:52:48.969Z,9.15
2023-04-13T11:53:49.851Z,9.18
2023-04-13T11:54:50.781Z,9.16
2023-04-13T11:55:59.012Z,9.09
2023-04-13T11:58:53.037Z,9.16
2023-04-13T11:59:54.024Z,9.21
2023-04-13T12:00:59.974Z,9.12
2023-04-13T12:02:05.358Z,9.13
2023-04-13T12:03:31.944Z,9.13
2023-04-13T12:04:21.630Z,9.11
2023-04-13T12:05:12.387Z,9.12
2023-04-13T12:06:13.462Z,9.12
2023-04-13T12:07:15.460Z,9.13
2023-04-13T12:08:15.465Z,9.18
2023-04-13T12:09:26.939Z,8.99
2023-04-13T12:10:25.096Z,9.09
2023-04-13T12:12:04.702Z,9.15
2023-04-13T12:12:56.988Z,9.21
2023-04-13T12:13:47.651Z,9.31
2023-04-13T12:15:39.078Z,9.21
2023-04-13T12:17:07.820Z,9.19
2023-04-13T12:18:17.601Z,9.21
2023-04-13T12:19:58.498Z,9.22
2023-04-13T12:20:58.337Z,9.12
2023-04-13T12:22:00.992Z,9.13
2023-04-13T12:23:22.636Z,9.16
2023-04-13T12:25:03.064Z,9.15
2023-04-13T12:26:32.562Z,9.11
2023-04-13T12:27:22.525Z,9.13
2023-04-13T12:28:03.401Z,9.13
2023-04-13T12:29:04.378Z,9.18
2023-04-13T12:30:04.784Z,9.22
2023-04-13T12:31:05.965Z,9.19
2023-04-13T12:32:06.339Z,9.16
2023-04-13T12:33:06.929Z,9.24
2023-04-13T12:34:07.939Z,9.19
2023-04-13T12:35:08.126Z,9.18
2023-04-13T12:36:08.683Z,9.24
2023-04-13T12:37:08.584Z,9.29
2023-04-13T12:38:09.464Z,9.27
2023-04-13T12:39:10.724Z,9.26
2023-04-13T12:40:10.948Z,9.31
2023-04-13T12:41:11.754Z,9.39
2023-04-13T12:42:11.645Z,9.37
2023-04-13T12:43:12.584Z,9.47
2023-04-13T12:44:13.516Z,9.48
2023-04-13T12:45:14.468Z,9.42
2023-04-13T12:46:14.980Z,9.49
2023-04-13T12:47:16.115Z,9.54
2023-04-13T12:48:16.937Z,9.54
2023-04-13T12:49:17.542Z,9.51
2023-04-13T12:50:18.474Z,9.51
2023-04-13T12:51:18.635Z,9.54
2023-04-13T12:52:19.340Z,9.52
2023-04-13T12:53:19.295Z,9.62
2023-04-13T12:54:20.199Z,9.62
2023-04-13T12:55:20.970Z,9.55
2023-04-13T12:56:21.613Z,9.54
2023-04-13T12:57:21.580Z,9.55
2023-04-13T12:58:22.170Z,9.58
2023-04-13T12:59:23.841Z,9.55
2023-04-13T13:00:23.555Z,9.55
2023-04-13T13:01:24.324Z,9.51
2023-04-13T13:02:24.823Z,9.52
2023-04-13T13:03:25.053Z,9.58
2023-04-13T13:04:26.115Z,9.64
2023-04-13T13:05:26.359Z,9.64
2023-04-13T13:06:27.228Z,9.63
2023-04-13T13:07:27.458Z,9.72
2023-04-13T13:08:27.648Z,9.7
2023-04-13T13:09:27.799Z,9.81
2023-04-13T13:10:36.353Z,9.82
2023-04-13T13:11:36.998Z,9.99
2023-04-13T13:12:37.736Z,9.91
2023-04-13T13:13:38.666Z,10.05
2023-04-13T13:14:39.431Z,10.05
2023-04-13T13:15:39.583Z,10.13
2023-04-13T13:16:40.295Z,10.13
2023-04-13T13:17:40.471Z,10.15
2023-04-13T13:18:55.540Z,10.28
2023-04-13T13:20:42.322Z,10.27
2023-04-13T13:21:43.035Z,10.25
2023-04-13T13:22:43.748Z,10.28
2023-04-13T13:23:43.851Z,10.38
2023-04-13T13:24:44.414Z,10.33
2023-04-13T13:26:22.903Z,10.43
2023-04-13T13:28:14.449Z,10.65
2023-04-13T13:29:32.452Z,10.79
2023-04-13T13:30:33.413Z,10.77
2023-04-13T13:31:34.006Z,10.68
2023-04-13T13:32:35.205Z,10.61
2023-04-13T13:33:35.310Z,10.67
2023-04-13T13:34:36.271Z,10.55
2023-04-13T13:35:37.118Z,10.42
2023-04-13T13:36:38.062Z,10.15
2023-04-13T13:37:38.912Z,10.05
2023-04-13T13:38:42.386Z,9.97
2023-04-13T13:40:41.618Z,9.87
2023-04-13T13:41:42.323Z,9.82
2023-04-13T13:42:55.981Z,9.8
2023-04-13T13:44:44.567Z,9.59
2023-04-13T13:45:45.730Z,9.58